KGSO

Piedmont Triad International Airport

Greensboro, North Carolina, USA
METAR KGSO 230454Z 24006KT 10SM FEW180 OVC250 09/04 A3021 RMK AO2 SLP228 T00890044 401670017
Observed Flight Rules
Oct-23 @ 04:54 UTC (24 minutes ago) Visual Flight Rules
Wind Visibility Clouds
240° at 6 knots 10 miles
  • Few at 18,000' AGL
  • Overcast at 25,000' AGL
Temperatures Readings
Current 9°C / 48°F
Dewpoint 4°C / 39°F
Humidity 71%
Altimeter 30.21" Hg
Pressure 1022.8 hPa
Elevation 275
METAR KGSO 230454Z 24006KT 10SM FEW180 OVC250 09/04 A3021 RMK AO2 SLP228 T00890044 401670017
Observed Flight Rules
Oct-23 @ 04:54 UTC
(24 minutes ago)
VFR
Wind Visibility
240° at 6 knots 10 miles
Clouds
  • Few at 18,000' AGL
  • Overcast at 25,000' AGL
Temperature Dewpoint
9°C / 48°F 4°C / 39°F
Humidity Altimeter Pressure
71% 30.21" Hg 1022.8 hPa